Time;durP1;ratioP1;P1;durP2;ratioP2;P2;SDS_P1;SDS_P2;PMS_P1;PMS_P2;Temp;Humidity;BMP_temperature;BMP_pressure;BME280_temperature;BME280_humidity;BME280_pressure;Samples;Min_cycle;Max_cycle;Signal;HPM_P1;HPM_P2
2021/07/07 03:01:45;;;;;;;1.00;0.30;;;24.70;69.60;;;;;;6138485;22;1298380;-50
2021/07/07 03:04:19;;;;;;;1.80;0.50;;;24.70;69.50;;;;;;6209822;23;20079;-51
2021/07/07 03:06:47;;;;;;;;;;;24.70;69.50;;;;;;6210214;23;20087;-51
2021/07/07 03:09:13;;;;;;;1.55;0.40;;;24.70;69.50;;;;;;6210439;23;19930;-50
2021/07/07 03:11:38;;;;;;;0.75;0.30;;;24.70;69.50;;;;;;6211356;23;20447;-50
2021/07/07 03:14:05;;;;;;;2.00;0.50;;;24.70;69.40;;;;;;6211334;23;20003;-50
2021/07/07 03:16:31;;;;;;;1.85;0.45;;;24.70;69.50;;;;;;6211589;23;20015;-51
2021/07/07 03:18:56;;;;;;;1.60;0.20;;;24.70;69.50;;;;;;6211504;23;20364;-50
2021/07/07 03:21:22;;;;;;;1.35;0.38;;;24.70;69.60;;;;;;6211439;23;20079;-50
2021/07/07 03:23:48;;;;;;;1.17;0.40;;;24.70;69.60;;;;;;6211742;23;20000;-52
2021/07/07 03:26:13;;;;;;;1.92;0.50;;;24.70;69.60;;;;;;6211829;23;20075;-50
2021/07/07 03:28:39;;;;;;;1.23;0.30;;;24.70;69.60;;;;;;6211367;23;21532;-51
2021/07/07 03:31:05;;;;;;;1.88;0.30;;;24.70;69.40;;;;;;6212144;23;20023;-50
2021/07/07 03:33:30;;;;;;;1.85;0.50;;;24.70;69.50;;;;;;6211676;23;20008;-51
2021/07/07 03:36:46;;;;;;;1.00;0.32;;;24.70;69.10;;;;;;5100923;27;20489;-50
2021/07/07 03:39:12;;;;;;;4.47;0.82;;;24.60;69.50;;;;;;5100778;28;20095;-50
2021/07/07 03:41:39;;;;;;;1.98;0.57;;;24.60;69.20;;;;;;5100662;28;20564;-50
2021/07/07 03:44:05;;;;;;;1.75;0.40;;;24.70;69.50;;;;;;5100668;28;20019;-51
2021/07/07 03:46:49;;;;;;;1.80;0.47;;;24.70;69.20;;;;;;5060394;28;20476;-50
2021/07/07 03:49:15;;;;;;;4.07;0.50;;;24.70;69.70;;;;;;5075775;28;20068;-50
2021/07/07 03:51:40;;;;;;;1.30;0.28;;;24.70;69.70;;;;;;5060224;28;20028;-50
2021/07/07 03:54:06;;;;;;;1.67;0.50;;;24.60;69.60;;;;;;5060169;28;20035;-50
2021/07/07 03:56:32;;;;;;;6.20;0.63;;;24.70;70.00;;;;;;5060265;28;20055;-50
2021/07/07 03:58:57;;;;;;;3.70;0.85;;;24.70;69.80;;;;;;5053840;28;20021;-51
2021/07/07 04:01:23;;;;;;;3.28;0.70;;;24.70;69.90;;;;;;5047575;28;20418;-50
2021/07/07 04:03:49;;;;;;;3.78;0.50;;;24.70;69.80;;;;;;5044364;28;20040;-50
2021/07/07 04:06:14;;;;;;;4.00;0.50;;;24.70;69.60;;;;;;5043796;28;20115;-50
2021/07/07 04:08:40;;;;;;;6.47;1.10;;;24.70;69.70;;;;;;5050094;28;20056;-51
2021/07/07 04:11:06;;;;;;;9.50;0.70;;;24.70;69.70;;;;;;5041808;28;20047;-50
2021/07/07 04:13:32;;;;;;;3.53;0.55;;;24.70;69.70;;;;;;5048219;28;20702;-50
2021/07/07 04:15:58;;;;;;;6.72;1.10;;;24.70;69.50;;;;;;5044427;28;20044;-50
2021/07/07 04:18:23;;;;;;;7.78;1.00;;;24.70;69.50;;;;;;5047627;28;20075;-51
2021/07/07 04:20:50;;;;;;;4.45;1.00;;;24.70;69.50;;;;;;5049014;28;20388;-50
2021/07/07 04:23:16;;;;;;;9.23;0.95;;;24.70;69.50;;;;;;5047552;28;20044;-50
2021/07/07 04:25:42;;;;;;;5.40;1.23;;;24.70;69.40;;;;;;5054902;28;20035;-51
2021/07/07 04:28:08;;;;;;;7.22;0.75;;;24.70;69.40;;;;;;5052605;28;20572;-50
2021/07/07 04:30:34;;;;;;;4.15;0.70;;;24.70;69.50;;;;;;5052601;28;20104;-50
2021/07/07 04:33:00;;;;;;;4.53;1.13;;;24.60;69.40;;;;;;5047382;28;20476;-50
2021/07/07 04:35:26;;;;;;;3.80;0.73;;;24.60;69.20;;;;;;5041445;28;20100;-50
2021/07/07 04:37:52;;;;;;;5.45;0.95;;;24.60;69.20;;;;;;5049365;28;20094;-51
2021/07/07 04:40:19;;;;;;;7.35;0.88;;;24.60;68.90;;;;;;5049431;28;20407;-51
2021/07/07 04:42:46;;;;;;;5.10;0.90;;;24.60;68.80;;;;;;5054274;28;20120;-51
2021/07/07 04:45:35;;;;;;;8.75;1.10;;;24.60;68.40;;;;;;5095411;27;20514;-51
2021/07/07 04:48:02;;;;;;;6.18;1.30;;;24.60;68.50;;;;;;5097903;28;20059;-50
2021/07/07 04:50:27;;;;;;;5.43;1.10;;;24.60;68.70;;;;;;5083859;28;20032;-51
2021/07/07 04:52:53;;;;;;;5.53;0.80;;;24.60;69.40;;;;;;5083450;28;20692;-50
2021/07/07 04:55:19;;;;;;;6.07;0.82;;;24.50;69.10;;;;;;5082513;28;20027;-51
2021/07/07 04:57:44;;;;;;;9.05;1.27;;;24.60;69.30;;;;;;5085100;28;20084;-51
2021/07/07 05:00:15;;;;;;;8.50;1.73;;;24.60;69.30;;;;;;5081059;28;20024;-51
2021/07/07 05:02:42;;;;;;;5.35;1.20;;;24.50;69.20;;;;;;5084465;28;20035;-51
2021/07/07 05:06:08;;;;;;;6.40;1.10;;;24.50;68.80;;;;;;5097197;27;20493;-50
2021/07/07 05:08:34;;;;;;;6.18;0.80;;;24.60;69.20;;;;;;5095219;28;20052;-50
2021/07/07 05:11:00;;;;;;;4.38;0.98;;;24.50;69.20;;;;;;5079937;28;20025;-51
2021/07/07 05:13:26;;;;;;;4.55;0.90;;;24.50;69.20;;;;;;5080191;28;20033;-50
2021/07/07 05:15:52;;;;;;;3.67;0.80;;;24.50;69.20;;;;;;5080127;28;20024;-50
2021/07/07 05:18:19;;;;;;;5.38;0.93;;;24.50;69.20;;;;;;5080305;28;20036;-51
2021/07/07 05:20:44;;;;;;;6.38;1.10;;;24.60;69.30;;;;;;5080235;28;20036;-50
2021/07/07 05:23:10;;;;;;;2.72;0.85;;;24.50;69.30;;;;;;5080201;28;20696;-51
2021/07/07 05:25:38;;;;;;;5.70;0.80;;;24.50;69.30;;;;;;5080074;28;20032;-50
2021/07/07 05:28:04;;;;;;;3.83;1.55;;;24.50;69.30;;;;;;5080049;28;20434;-50
2021/07/07 05:30:31;;;;;;;4.78;0.70;;;24.50;69.30;;;;;;5079924;28;20032;-50
2021/07/07 05:32:59;;;;;;;6.88;1.58;;;24.50;69.40;;;;;;5079974;28;20593;-51
2021/07/07 05:35:25;;;;;;;4.57;0.85;;;24.60;69.50;;;;;;5079862;28;20031;-51
2021/07/07 05:37:51;;;;;;;3.92;0.80;;;24.50;69.40;;;;;;5079993;28;20099;-50
2021/07/07 05:40:18;;;;;;;2.67;0.70;;;24.50;69.40;;;;;;5079763;28;20097;-50
2021/07/07 05:42:49;;;;;;;4.78;1.05;;;24.50;69.40;;;;;;5079839;28;20021;-50
2021/07/07 05:45:16;;;;;;;3.00;0.70;;;24.60;69.50;;;;;;5079390;28;20112;-51
2021/07/07 05:47:42;;;;;;;4.53;0.80;;;24.60;69.50;;;;;;5078070;28;20073;-50
2021/07/07 05:50:07;;;;;;;6.38;1.23;;;24.50;69.50;;;;;;5079649;28;20032;-50
2021/07/07 05:52:33;;;;;;;4.28;0.80;;;24.50;69.50;;;;;;5079613;28;20113;-50
2021/07/07 05:54:59;;;;;;;2.90;0.80;;;24.60;69.60;;;;;;5079697;28;20597;-51
2021/07/07 05:57:36;;;;;;;5.32;0.77;;;24.60;69.60;;;;;;5079546;28;20020;-50
2021/07/07 06:00:06;;;;;;;2.50;0.63;;;24.50;69.60;;;;;;5079513;28;20013;-50
2021/07/07 06:02:32;;;;;;;2.50;0.60;;;24.50;69.60;;;;;;5079138;28;20024;-50
2021/07/07 06:04:58;;;;;;;1.90;0.65;;;24.50;69.60;;;;;;5078937;28;20109;-50
2021/07/07 06:07:23;;;;;;;4.78;0.70;;;24.50;69.60;;;;;;5079098;28;20498;-50
2021/07/07 06:09:49;;;;;;;3.25;0.68;;;24.50;69.70;;;;;;5079205;28;20415;-50
2021/07/07 06:12:14;;;;;;;3.20;0.77;;;24.50;69.70;;;;;;5079340;28;20035;-50
2021/07/07 06:14:40;;;;;;;3.10;1.02;;;24.50;69.60;;;;;;5079249;28;20012;-50
2021/07/07 06:17:06;;;;;;;3.28;0.57;;;24.50;69.70;;;;;;5067993;28;20649;-50
2021/07/07 06:19:31;;;;;;;3.72;1.08;;;24.50;69.70;;;;;;5065573;28;20731;-50
2021/07/07 06:22:00;;;;;;;1.73;0.60;;;24.50;69.70;;;;;;5065644;28;20016;-50
2021/07/07 06:24:26;;;;;;;2.08;0.60;;;24.50;69.70;;;;;;5065524;28;20043;-50
2021/07/07 06:26:52;;;;;;;1.58;0.60;;;24.50;69.60;;;;;;5065604;28;20027;-51
2021/07/07 06:29:18;;;;;;;2.50;0.50;;;24.50;69.70;;;;;;5065365;28;20028;-50
2021/07/07 06:31:43;;;;;;;4.53;1.73;;;24.50;69.70;;;;;;5065491;28;20024;-50
2021/07/07 06:34:11;;;;;;;3.10;0.68;;;24.50;70.30;;;;;;5065412;28;20024;-50
2021/07/07 06:36:37;;;;;;;2.47;0.60;;;24.50;69.80;;;;;;5065404;28;20081;-50
2021/07/07 06:39:03;;;;;;;3.97;0.60;;;24.50;69.80;;;;;;5065307;28;20013;-50
2021/07/07 06:41:28;;;;;;;4.50;0.75;;;24.50;69.70;;;;;;5065273;28;20037;-51
2021/07/07 06:43:54;;;;;;;1.67;0.40;;;24.50;69.80;;;;;;5065194;28;20035;-50
2021/07/07 06:47:54;;;;;;;2.97;0.60;;;24.50;69.40;;;;;;5060257;28;20475;-50
2021/07/07 06:50:20;;;;;;;1.88;0.40;;;24.50;69.80;;;;;;5060148;28;20642;-50
2021/07/07 06:52:46;;;;;;;2.13;0.70;;;24.50;69.80;;;;;;5060076;28;20028;-51
2021/07/07 06:55:12;;;;;;;2.80;0.60;;;24.50;69.80;;;;;;5060281;28;20040;-50
2021/07/07 06:57:38;;;;;;;2.05;0.60;;;24.50;69.80;;;;;;5060098;28;20036;-50
2021/07/07 07:00:08;;;;;;;2.92;0.50;;;24.50;69.90;;;;;;5059986;28;20021;-51
2021/07/07 07:02:34;;;;;;;2.10;0.63;;;24.50;69.90;;;;;;5060072;28;20115;-50
2021/07/07 07:05:00;;;;;;;1.85;0.60;;;24.50;69.80;;;;;;5059974;28;20028;-50
2021/07/07 07:07:27;;;;;;;2.92;0.75;;;24.50;69.90;;;;;;5059916;28;20047;-51
2021/07/07 07:09:53;;;;;;;1.20;0.50;;;24.50;69.90;;;;;;5059801;28;20025;-50
2021/07/07 07:12:19;;;;;;;1.85;0.60;;;24.50;69.90;;;;;;5059909;28;20117;-50
2021/07/07 07:14:44;;;;;;;3.38;0.60;;;24.50;69.90;;;;;;5059860;28;20025;-51
2021/07/07 07:18:57;;;;;;;3.60;1.00;;;24.50;69.40;;;;;;5060281;28;20511;-50
2021/07/07 07:21:23;;;;;;;2.00;0.50;;;24.50;69.90;;;;;;5060392;28;20060;-51
2021/07/07 07:23:48;;;;;;;1.73;0.50;;;24.50;69.90;;;;;;5060222;28;20509;-50
2021/07/07 07:26:14;;;;;;;2.03;0.57;;;24.50;69.90;;;;;;5060251;28;20492;-50
2021/07/07 07:28:41;;;;;;;5.43;0.60;;;24.50;69.90;;;;;;5060040;28;20047;-50
2021/07/07 07:31:07;;;;;;;1.88;0.63;;;24.50;69.90;;;;;;5060156;28;20491;-51
2021/07/07 07:33:32;;;;;;;1.48;0.40;;;24.50;69.80;;;;;;5060137;28;20033;-51
2021/07/07 07:35:58;;;;;;;1.58;0.50;;;24.50;69.90;;;;;;5059897;28;20103;-51
2021/07/07 07:38:30;;;;;;;2.53;0.60;;;24.50;69.90;;;;;;5059784;28;20036;-50
2021/07/07 07:40:56;;;;;;;1.88;0.50;;;24.50;69.90;;;;;;5059791;28;20025;-50
2021/07/07 07:43:22;;;;;;;2.20;0.47;;;24.50;69.90;;;;;;5059938;28;20036;-50
2021/07/07 07:45:55;;;;;;;1.98;0.50;;;24.50;69.90;;;;;;5059707;28;20743;-51
2021/07/07 07:48:22;;;;;;;1.83;0.47;;;24.50;69.90;;;;;;5059276;28;20029;-50
2021/07/07 07:50:47;;;;;;;1.80;0.52;;;24.50;69.90;;;;;;5059695;28;20032;-50
2021/07/07 07:53:13;;;;;;;1.30;0.50;;;24.50;69.90;;;;;;5059821;28;20082;-51
2021/07/07 07:55:40;;;;;;;2.35;0.60;;;24.50;70.40;;;;;;5059634;28;20032;-50
2021/07/07 07:58:05;;;;;;;2.15;0.55;;;24.50;69.90;;;;;;5059359;28;20036;-50
2021/07/07 08:00:31;;;;;;;1.95;0.50;;;24.50;69.90;;;;;;5059299;28;20025;-52
2021/07/07 08:02:57;;;;;;;2.22;0.60;;;24.50;70.00;;;;;;5059249;28;20021;-50
2021/07/07 08:05:23;;;;;;;3.25;0.70;;;24.50;69.90;;;;;;5059313;28;20578;-50
2021/07/07 08:07:49;;;;;;;2.30;0.30;;;24.50;69.90;;;;;;5059395;28;20028;-50
2021/07/07 08:10:19;;;;;;;1.95;0.55;;;24.50;69.90;;;;;;5059194;28;20029;-50
2021/07/07 08:12:46;;;;;;;3.15;0.55;;;24.50;69.90;;;;;;5059138;28;20033;-50
2021/07/07 08:15:12;;;;;;;2.83;0.50;;;24.50;70.00;;;;;;5059265;28;20024;-50
2021/07/07 08:17:38;;;;;;;3.38;0.75;;;24.50;69.90;;;;;;5058768;28;20067;-51
2021/07/07 08:20:06;;;;;;;2.13;0.50;;;24.50;69.90;;;;;;5059002;28;20021;-50
2021/07/07 08:22:32;;;;;;;1.33;0.35;;;24.50;69.90;;;;;;5059040;28;20013;-50
2021/07/07 08:24:58;;;;;;;2.58;0.60;;;24.40;69.90;;;;;;5059013;28;20042;-50
2021/07/07 08:27:23;;;;;;;1.75;0.60;;;24.50;69.90;;;;;;5058994;28;20020;-50
2021/07/07 08:29:49;;;;;;;1.83;0.57;;;24.50;69.90;;;;;;5048414;28;20102;-50
2021/07/07 08:32:15;;;;;;;2.05;0.45;;;24.50;70.00;;;;;;5045737;28;20076;-50
2021/07/07 08:34:41;;;;;;;1.67;0.50;;;24.50;69.90;;;;;;5045708;28;21000;-50
2021/07/07 08:37:06;;;;;;;1.45;0.47;;;24.50;70.00;;;;;;5045544;28;20116;-50
2021/07/07 08:39:32;;;;;;;1.65;0.40;;;24.40;69.90;;;;;;5045552;28;20060;-51
2021/07/07 08:41:58;;;;;;;2.20;0.50;;;24.50;70.00;;;;;;5045475;28;20104;-50
2021/07/07 08:44:24;;;;;;;2.00;0.45;;;24.50;70.00;;;;;;5039776;28;20033;-50
2021/07/07 08:46:52;;;;;;;2.22;0.50;;;24.50;70.00;;;;;;5025741;28;20018;-51
2021/07/07 08:49:19;;;;;;;0.88;0.30;;;24.40;69.90;;;;;;5025232;28;20033;-51
2021/07/07 08:51:44;;;;;;;1.08;0.38;;;24.40;69.90;;;;;;5025483;28;20029;-50
2021/07/07 08:54:11;;;;;;;2.55;0.50;;;24.40;69.90;;;;;;5025355;28;20017;-50
2021/07/07 08:56:41;;;;;;;1.90;0.60;;;24.40;69.90;;;;;;5025349;28;20176;-50
2021/07/07 08:59:12;;;;;;;1.90;0.52;;;24.50;70.00;;;;;;5025226;28;20033;-51
2021/07/07 09:02:00;;;;;;;1.75;0.50;;;24.40;69.90;;;;;;5025306;28;20056;-50
2021/07/07 09:04:30;;;;;;;1.15;0.35;;;24.40;69.90;;;;;;5025176;28;20021;-50
2021/07/07 09:07:49;;;;;;;2.40;0.50;;;24.40;69.50;;;;;;5121345;27;20414;-50
2021/07/07 09:10:28;;;;;;;1.83;0.30;;;24.50;70.00;;;;;;5121036;28;20019;-51
2021/07/07 09:14:19;;;;;;;1.65;0.50;;;24.50;69.60;;;;;;5060364;28;20484;-50
2021/07/07 09:16:46;;;;;;;1.63;0.50;;;24.40;70.00;;;;;;5060224;28;20048;-50
2021/07/07 09:19:18;;;;;;;1.63;0.45;;;24.40;69.90;;;;;;5060043;28;20107;-50
2021/07/07 09:21:52;;;;;;;1.20;0.40;;;24.50;70.00;;;;;;5052710;28;20411;-50
2021/07/07 09:24:24;;;;;;;2.15;0.50;;;24.40;70.50;;;;;;5045636;28;20501;-51
2021/07/07 09:27:05;;;;;;;0.98;0.40;;;24.40;70.00;;;;;;5042398;28;20492;-51
2021/07/07 09:29:32;;;;;;;1.23;0.40;;;24.50;70.10;;;;;;5041817;28;20033;-50
2021/07/07 09:31:58;;;;;;;1.20;0.40;;;24.40;70.00;;;;;;5045881;28;20029;-50
2021/07/07 09:34:24;;;;;;;2.40;0.70;;;24.40;70.00;;;;;;5044727;28;20036;-51
2021/07/07 09:36:52;;;;;;;1.55;0.43;;;24.40;70.00;;;;;;5050428;28;20021;-51
2021/07/07 09:39:20;;;;;;;1.42;0.40;;;24.40;70.00;;;;;;5050993;28;20023;-51
2021/07/07 09:41:50;;;;;;;1.27;0.40;;;24.40;70.00;;;;;;5049571;28;20016;-52
2021/07/07 09:44:18;;;;;;;1.40;0.40;;;24.40;70.00;;;;;;5052259;28;20044;-52
2021/07/07 09:46:44;;;;;;;1.85;0.55;;;24.40;70.00;;;;;;5046826;28;20031;-50
2021/07/07 09:49:10;;;;;;;2.20;0.40;;;24.40;70.00;;;;;;5054751;28;20472;-51
2021/07/07 09:51:36;;;;;;;0.70;0.22;;;24.50;70.00;;;;;;5050505;28;20033;-51
2021/07/07 09:54:04;;;;;;;0.90;0.30;;;24.40;70.00;;;;;;5039456;28;20370;-50
2021/07/07 09:56:32;;;;;;;1.33;0.40;;;24.40;70.00;;;;;;5039677;28;20033;-50
2021/07/07 09:58:59;;;;;;;1.27;0.30;;;24.40;70.00;;;;;;5039492;28;20036;-50
2021/07/07 10:01:25;;;;;;;1.90;0.50;;;24.50;70.10;;;;;;5038290;28;20438;-51
2021/07/07 10:03:52;;;;;;;1.23;0.40;;;24.50;70.00;;;;;;5039495;28;20033;-50
2021/07/07 10:06:18;;;;;;;2.20;0.40;;;24.40;70.00;;;;;;5039438;28;20623;-50
2021/07/07 10:08:45;;;;;;;2.15;0.60;;;24.40;70.00;;;;;;5039341;28;20052;-50
2021/07/07 10:11:11;;;;;;;3.72;0.50;;;24.40;70.00;;;;;;5039315;28;20017;-50
2021/07/07 10:13:38;;;;;;;2.30;0.60;;;24.40;70.00;;;;;;5039061;28;20053;-50
2021/07/07 10:16:04;;;;;;;2.22;0.50;;;24.50;70.00;;;;;;5038956;28;20024;-50
2021/07/07 10:18:32;;;;;;;1.95;0.47;;;24.40;70.00;;;;;;5039118;28;20379;-51
2021/07/07 10:20:58;;;;;;;1.08;0.30;;;24.50;70.00;;;;;;5054670;28;20124;-52
2021/07/07 10:23:24;;;;;;;2.25;0.50;;;24.40;70.00;;;;;;5058856;28;20095;-50
2021/07/07 10:25:50;;;;;;;2.03;0.63;;;24.40;69.80;;;;;;5045128;28;20399;-50
2021/07/07 10:28:16;;;;;;;3.67;0.50;;;24.40;69.80;;;;;;5045587;28;20024;-50
2021/07/07 10:31:04;;;;;;;1.80;0.80;;;24.40;69.80;;;;;;5045409;28;20021;-50
2021/07/07 10:33:32;;;;;;;5.07;0.93;;;24.40;69.80;;;;;;5045526;28;20036;-50
2021/07/07 10:36:19;;;;;;;6.35;1.02;;;24.40;69.80;;;;;;5045658;28;20158;-51
2021/07/07 10:39:05;;;;;;;4.00;0.70;;;24.40;69.70;;;;;;5045526;28;20025;-50
2021/07/07 10:41:50;;;;;;;2.25;0.50;;;24.40;69.70;;;;;;5045470;28;20565;-50
2021/07/07 10:44:22;;;;;;;4.32;0.88;;;24.40;69.70;;;;;;5045455;28;20029;-50
2021/07/07 10:46:48;;;;;;;2.65;0.50;;;24.40;69.60;;;;;;5045390;28;20092;-51
2021/07/07 10:49:21;;;;;;;3.28;0.70;;;24.40;69.60;;;;;;5045265;28;20017;-50
2021/07/07 10:51:52;;;;;;;4.13;0.77;;;24.40;69.60;;;;;;5045316;28;20083;-51
2021/07/07 10:55:00;;;;;;;3.30;1.05;;;24.40;69.20;;;;;;5100866;27;20981;-50
2021/07/07 10:57:35;;;;;;;3.85;0.70;;;24.40;69.60;;;;;;5100848;28;20086;-51
2021/07/07 11:00:30;;;;;;;4.28;0.70;;;24.40;69.20;;;;;;5100834;27;20481;-50
2021/07/07 11:03:18;;;;;;;4.90;0.82;;;24.40;69.70;;;;;;5100727;28;20051;-50
2021/07/07 11:05:46;;;;;;;3.15;0.63;;;24.40;69.70;;;;;;5100479;28;20016;-52
2021/07/07 11:08:21;;;;;;;2.35;0.80;;;24.40;69.70;;;;;;5098976;28;20377;-50
2021/07/07 11:10:55;;;;;;;2.95;1.10;;;24.40;69.60;;;;;;5100472;28;20020;-51
2021/07/07 11:13:21;;;;;;;2.30;0.80;;;24.40;69.60;;;;;;5100596;28;20024;-50
2021/07/07 11:15:48;;;;;;;2.78;0.88;;;24.40;69.70;;;;;;5100644;28;20667;-51
2021/07/07 11:18:19;;;;;;;2.50;0.80;;;24.40;69.70;;;;;;5100410;28;20031;-52
2021/07/07 11:20:57;;;;;;;3.65;0.70;;;24.40;69.80;;;;;;5100387;28;20026;-50
2021/07/07 11:23:23;;;;;;;2.88;0.77;;;24.40;69.80;;;;;;5099793;28;20046;-50
2021/07/07 11:25:49;;;;;;;3.78;1.05;;;24.40;69.80;;;;;;5099814;28;20113;-50
2021/07/07 11:28:18;;;;;;;1.67;0.60;;;24.40;69.80;;;;;;5099739;28;20177;-51
2021/07/07 11:30:44;;;;;;;3.10;0.88;;;24.40;69.80;;;;;;5095730;28;20027;-51
2021/07/07 11:33:10;;;;;;;3.33;0.82;;;24.40;69.80;;;;;;5088854;27;20040;-50
2021/07/07 11:35:40;;;;;;;2.05;0.70;;;24.40;69.70;;;;;;5091233;28;20024;-50
2021/07/07 11:38:11;;;;;;;3.70;0.93;;;24.40;69.50;;;;;;5089850;28;20718;-50
2021/07/07 11:40:38;;;;;;;2.28;0.70;;;24.50;69.40;;;;;;5092917;28;20031;-50
2021/07/07 11:43:10;;;;;;;2.10;0.80;;;24.40;69.20;;;;;;5085372;28;20036;-51
2021/07/07 11:45:39;;;;;;;2.88;0.90;;;24.50;69.30;;;;;;5087028;28;20582;-51
2021/07/07 11:50:42;;;;;;;3.70;0.90;;;24.50;69.20;;;;;;5092907;28;20100;-51
2021/07/07 11:53:08;;;;;;;4.05;1.17;;;24.50;69.20;;;;;;5089655;28;20608;-50
2021/07/07 11:55:55;;;;;;;2.40;0.90;;;24.40;69.00;;;;;;5092630;28;20361;-51
2021/07/07 11:58:26;;;;;;;4.45;1.10;;;24.50;69.20;;;;;;5088485;28;20169;-51
2021/07/07 12:00:55;;;;;;;3.72;0.98;;;24.50;69.20;;;;;;5092605;28;20055;-50
2021/07/07 12:03:22;;;;;;;3.97;1.08;;;24.50;69.20;;;;;;5088671;28;20228;-51
2021/07/07 12:05:56;;;;;;;5.75;1.17;;;24.40;69.10;;;;;;5094642;28;20015;-50
2021/07/07 12:08:26;;;;;;;5.75;1.23;;;24.40;69.30;;;;;;5094916;28;20035;-50
2021/07/07 12:11:10;;;;;;;5.10;1.20;;;24.40;69.30;;;;;;5083853;28;20028;-50
2021/07/07 12:13:39;;;;;;;4.22;1.25;;;24.50;69.80;;;;;;5081219;28;20020;-50
2021/07/07 12:16:34;;;;;;;3.88;0.95;;;24.50;69.60;;;;;;5079095;28;20495;-52
2021/07/07 12:19:01;;;;;;;;;;;24.50;69.40;;;;;;5076251;28;20036;-51
2021/07/07 12:21:26;;;;;;;4.63;1.55;;;24.50;69.60;;;;;;5069224;28;19912;-51
2021/07/07 12:23:54;;;;;;;5.78;1.20;;;24.50;69.70;;;;;;5071797;28;20740;-51
2021/07/07 12:26:25;;;;;;;4.63;1.13;;;24.50;69.70;;;;;;5067325;28;20099;-50
2021/07/07 12:28:54;;;;;;;2.97;1.00;;;24.50;69.80;;;;;;5073329;28;20024;-51
2021/07/07 12:31:21;;;;;;;3.42;1.13;;;24.50;70.40;;;;;;5073096;28;20736;-50
2021/07/07 12:33:52;;;;;;;4.32;1.20;;;24.50;70.00;;;;;;5070784;28;20386;-50
2021/07/07 12:36:22;;;;;;;6.03;1.08;;;24.50;70.00;;;;;;5072750;28;20028;-51
2021/07/07 12:38:49;;;;;;;3.47;1.10;;;24.50;70.00;;;;;;5071699;28;20133;-50
2021/07/07 12:41:15;;;;;;;3.47;0.85;;;24.50;70.10;;;;;;5074623;28;20089;-50
2021/07/07 12:43:55;;;;;;;4.35;1.30;;;24.60;70.20;;;;;;5074745;28;20917;-51
2021/07/07 12:46:23;;;;;;;6.25;1.63;;;24.60;69.90;;;;;;5080774;28;20157;-51
2021/07/07 12:48:50;;;;;;;3.35;0.95;;;24.60;69.90;;;;;;5080323;28;20016;-50
2021/07/07 12:51:26;;;;;;;7.18;0.98;;;24.60;70.20;;;;;;5080473;28;20012;-50
2021/07/07 12:53:53;;;;;;;4.38;1.02;;;24.60;70.10;;;;;;5077867;28;20024;-50
2021/07/07 12:56:20;;;;;;;3.03;1.00;;;24.60;70.10;;;;;;5080640;28;20023;-50
2021/07/07 12:58:45;;;;;;;4.15;1.50;;;24.60;70.10;;;;;;5080121;28;20111;-50
2021/07/07 13:01:22;;;;;;;3.63;0.95;;;24.60;70.20;;;;;;5080565;28;20550;-50
2021/07/07 13:03:48;;;;;;;4.50;1.00;;;24.60;70.20;;;;;;5080442;28;20035;-51
2021/07/07 13:06:22;;;;;;;4.72;1.05;;;24.60;70.10;;;;;;5078998;28;20397;-50
2021/07/07 13:08:48;;;;;;;;;;;24.60;70.10;;;;;;5080563;28;20020;-50
2021/07/07 13:11:22;;;;;;;3.58;1.10;;;24.60;70.20;;;;;;5080183;28;19942;-50
2021/07/07 13:13:52;;;;;;;4.28;1.20;;;24.60;70.20;;;;;;5078896;28;20339;-50
2021/07/07 13:16:25;;;;;;;4.47;1.52;;;24.60;70.20;;;;;;5082202;28;20035;-50
2021/07/07 13:19:00;;;;;;;3.65;0.90;;;24.60;69.90;;;;;;5084484;28;20076;-50
2021/07/07 13:21:51;;;;;;;5.47;1.35;;;24.60;70.00;;;;;;5083905;28;20107;-50
2021/07/07 13:24:20;;;;;;;4.53;1.20;;;24.60;70.00;;;;;;5084354;28;20027;-50
2021/07/07 13:27:04;;;;;;;3.95;0.77;;;24.60;70.00;;;;;;5084237;28;20024;-51
2021/07/07 13:29:36;;;;;;;3.92;0.90;;;24.60;70.00;;;;;;5084198;28;20028;-50
2021/07/07 13:32:20;;;;;;;3.90;0.98;;;24.60;70.00;;;;;;5084336;28;20024;-50
2021/07/07 13:35:01;;;;;;;4.07;0.95;;;24.60;70.10;;;;;;5084275;28;20077;-51
2021/07/07 13:37:41;;;;;;;4.35;1.20;;;24.60;70.00;;;;;;5084353;28;20578;-51
2021/07/07 13:40:13;;;;;;;6.15;1.00;;;24.60;70.00;;;;;;5084042;28;20054;-50
2021/07/07 13:44:15;;;;;;;4.13;0.90;;;24.60;69.60;;;;;;5060384;28;20492;-51
2021/07/07 13:46:41;;;;;;;7.20;0.90;;;24.60;70.00;;;;;;5060376;28;20068;-50
2021/07/07 13:49:07;;;;;;;5.25;1.17;;;24.60;70.00;;;;;;5060053;28;20036;-50
2021/07/07 13:51:32;;;;;;;4.00;1.10;;;24.60;70.00;;;;;;5054878;28;20109;-50
2021/07/07 13:53:58;;;;;;;4.20;0.85;;;24.60;69.80;;;;;;5047977;28;20045;-51
2021/07/07 13:56:24;;;;;;;4.50;1.27;;;24.60;69.80;;;;;;5041205;28;20108;-50
2021/07/07 13:58:50;;;;;;;5.35;0.90;;;24.60;69.80;;;;;;5050092;28;20075;-51
2021/07/07 14:01:15;;;;;;;5.07;1.17;;;24.60;69.80;;;;;;5050875;28;20024;-51
2021/07/07 14:03:41;;;;;;;2.47;0.85;;;24.60;69.70;;;;;;5052888;28;20468;-51
2021/07/07 14:06:07;;;;;;;7.28;0.95;;;24.60;69.80;;;;;;5057515;28;20025;-51
2021/07/07 14:08:33;;;;;;;4.90;0.95;;;24.60;70.20;;;;;;5053053;28;20971;-51
2021/07/07 14:11:24;;;;;;;6.60;1.42;;;24.60;69.40;;;;;;5078199;27;20437;-52
2021/07/07 14:13:50;;;;;;;4.95;1.25;;;24.60;70.10;;;;;;5076861;28;20059;-50
2021/07/07 14:16:16;;;;;;;5.47;1.10;;;24.70;69.90;;;;;;5078412;28;20747;-52
2021/07/07 14:18:41;;;;;;;5.78;1.50;;;24.60;69.90;;;;;;5073876;28;20029;-50
2021/07/07 14:21:07;;;;;;;4.57;1.40;;;24.60;69.80;;;;;;5065914;28;20090;-51
2021/07/07 14:23:33;;;;;;;5.32;1.30;;;24.60;69.70;;;;;;5064991;28;20127;-50
2021/07/07 14:25:59;;;;;;;8.38;1.92;;;24.60;70.20;;;;;;5064511;28;20044;-51
2021/07/07 14:28:24;;;;;;;5.82;1.40;;;24.60;69.80;;;;;;5065626;28;20030;-50
2021/07/07 14:30:51;;;;;;;4.28;0.93;;;24.60;69.70;;;;;;5065699;28;20039;-50
2021/07/07 14:33:16;;;;;;;5.47;1.10;;;24.60;70.00;;;;;;5065124;28;20411;-50
2021/07/07 14:35:42;;;;;;;5.65;1.38;;;24.60;69.80;;;;;;5070040;28;20032;-50
2021/07/07 14:38:07;;;;;;;4.05;1.17;;;24.60;69.80;;;;;;5060466;28;20107;-51
2021/07/07 14:40:33;;;;;;;4.57;1.10;;;24.60;69.80;;;;;;5066590;28;20028;-51
2021/07/07 14:42:59;;;;;;;5.00;1.33;;;24.60;69.80;;;;;;5063042;28;20036;-50
2021/07/07 14:45:25;;;;;;;6.22;1.60;;;24.60;70.60;;;;;;5065118;28;20142;-50
2021/07/07 14:47:50;;;;;;;4.40;1.00;;;24.60;70.00;;;;;;5059642;28;20495;-50
2021/07/07 14:50:21;;;;;;;5.43;1.50;;;24.60;70.00;;;;;;5063627;28;20110;-51
2021/07/07 14:52:47;;;;;;;5.57;1.10;;;24.60;70.10;;;;;;5060448;28;20101;-50
2021/07/07 14:55:14;;;;;;;6.38;1.30;;;24.60;70.30;;;;;;5061752;28;20757;-51
2021/07/07 14:57:40;;;;;;;6.60;1.50;;;24.70;70.40;;;;;;5060923;28;20078;-51
2021/07/07 15:00:42;;;;;;;6.38;1.65;;;24.60;69.60;;;;;;5045708;27;20497;-50
2021/07/07 15:03:08;;;;;;;5.57;1.27;;;24.70;70.20;;;;;;5029306;28;20168;-50
2021/07/07 15:05:35;;;;;;;6.70;1.95;;;24.70;70.10;;;;;;5032743;28;20033;-50
2021/07/07 15:08:01;;;;;;;6.57;1.30;;;24.70;70.10;;;;;;5036427;28;20626;-51
2021/07/07 15:10:27;;;;;;;7.43;1.40;;;24.60;70.10;;;;;;5046986;28;20029;-50
2021/07/07 15:12:52;;;;;;;5.72;1.10;;;24.70;70.20;;;;;;5047873;28;20044;-51
2021/07/07 15:15:18;;;;;;;3.92;1.42;;;24.70;70.10;;;;;;5043203;28;20114;-50
2021/07/07 15:17:44;;;;;;;5.53;1.30;;;24.60;70.00;;;;;;5044535;28;20128;-51
2021/07/07 15:20:10;;;;;;;7.03;1.48;;;24.60;70.00;;;;;;5041858;28;20120;-50
2021/07/07 15:22:37;;;;;;;6.88;1.33;;;24.70;70.10;;;;;;5039812;28;20033;-51
2021/07/07 15:25:05;;;;;;;3.78;1.30;;;24.60;70.00;;;;;;5046009;28;20182;-50
2021/07/07 15:27:31;;;;;;;4.82;1.48;;;24.60;70.00;;;;;;5047354;28;20036;-51
2021/07/07 15:30:25;;;;;;;6.03;1.20;;;24.60;69.50;;;;;;5036335;27;20441;-51
2021/07/07 15:32:51;;;;;;;5.63;1.30;;;24.60;70.00;;;;;;5034161;28;20512;-51
2021/07/07 15:36:26;;;;;;;5.53;1.30;;;24.60;69.60;;;;;;5091605;27;20532;-50
2021/07/07 15:38:52;;;;;;;5.57;1.30;;;24.60;70.10;;;;;;5091984;28;20020;-50
2021/07/07 15:41:18;;;;;;;4.05;1.38;;;24.70;70.10;;;;;;5083466;28;20063;-50
2021/07/07 15:43:44;;;;;;;6.93;1.65;;;24.70;70.10;;;;;;5084665;28;20020;-50
2021/07/07 15:46:12;;;;;;;5.20;1.42;;;24.70;70.00;;;;;;5083973;28;20025;-51
2021/07/07 15:48:40;;;;;;;6.45;1.40;;;24.70;70.00;;;;;;5082984;28;20028;-50
2021/07/07 15:51:49;;;;;;;4.43;1.60;;;24.70;69.50;;;;;;5049083;28;20491;-51
2021/07/07 15:54:20;;;;;;;4.35;1.42;;;24.60;69.90;;;;;;5042952;28;20115;-51
2021/07/07 15:56:46;;;;;;;3.75;1.25;;;24.70;69.80;;;;;;5042771;28;20040;-51
2021/07/07 15:59:15;;;;;;;3.97;1.35;;;24.70;69.80;;;;;;5040671;28;20104;-50
2021/07/07 16:01:41;;;;;;;5.22;1.17;;;24.70;69.90;;;;;;5042786;28;20083;-50
2021/07/07 16:04:07;;;;;;;5.50;1.20;;;24.70;69.90;;;;;;5040826;28;20072;-51
2021/07/07 16:06:34;;;;;;;4.20;1.08;;;24.60;69.80;;;;;;5047713;28;20032;-51
2021/07/07 16:09:00;;;;;;;5.68;1.20;;;24.70;69.90;;;;;;5041519;28;20029;-50